Time;durP1;ratioP1;P1;durP2;ratioP2;P2;SDS_P1;SDS_P2;PMS_P1;PMS_P2;Temp;Humidity;BMP_temperature;BMP_pressure;BME280_temperature;BME280_humidity;BME280_pressure;Samples;Min_cycle;Max_cycle;Signal;HPM_P1;HPM_P2
2020/12/18 00:00:34;;;;;;;7.80;3.88;;;8.00;99.90;;;;;;3620593;39;20585;-75
2020/12/18 00:03:00;;;;;;;6.13;3.83;;;8.00;99.90;;;;;;3621642;39;20267;-75
2020/12/18 00:05:32;;;;;;;8.90;4.13;;;8.00;99.90;;;;;;3623567;39;20267;-75
2020/12/18 00:07:59;;;;;;;8.00;4.00;;;7.90;99.90;;;;;;3627727;32;20247;-75
2020/12/18 00:10:26;;;;;;;11.80;4.60;;;7.90;99.90;;;;;;3619968;39;20252;-75
2020/12/18 00:12:53;;;;;;;7.20;4.45;;;7.90;99.90;;;;;;3622403;39;20797;-75
2020/12/18 00:15:23;;;;;;;6.45;4.15;;;7.80;99.90;;;;;;3625641;39;20344;-76
2020/12/18 00:17:49;;;;;;;6.70;4.65;;;7.80;99.90;;;;;;3622489;39;20252;-76
2020/12/18 00:20:16;;;;;;;7.00;3.72;;;7.70;99.90;;;;;;3622175;39;20260;-76
2020/12/18 00:22:43;;;;;;;6.57;4.15;;;7.70;99.90;;;;;;3622150;39;20255;-76
2020/12/18 00:25:09;;;;;;;12.40;4.90;;;7.70;99.90;;;;;;3624968;39;20392;-76
2020/12/18 00:27:38;;;;;;;7.50;3.53;;;7.70;99.90;;;;;;3624072;39;20232;-76
2020/12/18 00:30:05;;;;;;;13.02;4.82;;;7.60;99.90;;;;;;3623192;39;20284;-76
2020/12/18 00:32:31;;;;;;;9.07;3.95;;;7.60;99.90;;;;;;3624507;39;20288;-76
2020/12/18 00:34:58;;;;;;;14.07;5.18;;;7.50;99.90;;;;;;3624590;39;20272;-76
2020/12/18 00:37:24;;;;;;;8.95;4.50;;;7.50;99.90;;;;;;3622075;39;20244;-76
2020/12/18 00:39:52;;;;;;;7.57;4.47;;;7.50;99.90;;;;;;3623595;39;20251;-76
2020/12/18 00:42:18;;;;;;;15.20;4.50;;;7.50;99.90;;;;;;3623401;39;20363;-75
2020/12/18 00:44:44;;;;;;;6.60;4.15;;;7.60;99.90;;;;;;3624472;39;20282;-75
2020/12/18 00:47:11;;;;;;;8.48;5.15;;;7.60;99.90;;;;;;3622215;39;20244;-76
2020/12/18 00:49:37;;;;;;;11.20;4.82;;;7.60;99.90;;;;;;3621563;39;20308;-75
2020/12/18 00:52:04;;;;;;;8.82;4.57;;;7.60;99.90;;;;;;3621850;39;20286;-75
2020/12/18 00:54:30;;;;;;;9.00;4.90;;;7.60;99.90;;;;;;3620961;39;20268;-75
2020/12/18 00:56:58;;;;;;;9.98;3.90;;;7.60;99.90;;;;;;3622011;39;20278;-76
2020/12/18 00:59:24;;;;;;;10.75;4.50;;;7.60;99.90;;;;;;3621594;39;20259;-76
2020/12/18 01:01:56;;;;;;;7.85;4.95;;;7.60;99.90;;;;;;3624492;39;20256;-76
2020/12/18 01:04:23;;;;;;;8.50;4.35;;;7.60;99.90;;;;;;3624547;39;20274;-76
2020/12/18 01:06:49;;;;;;;10.90;4.40;;;7.60;99.90;;;;;;3636124;32;20791;-76
2020/12/18 01:09:16;;;;;;;9.45;4.15;;;7.60;99.90;;;;;;3625814;39;20259;-76
2020/12/18 01:11:42;;;;;;;9.85;4.28;;;7.60;99.90;;;;;;3621801;39;20244;-76
2020/12/18 01:14:10;;;;;;;8.00;4.25;;;7.50;99.90;;;;;;3621762;39;20278;-76
2020/12/18 01:16:36;;;;;;;9.00;4.32;;;7.60;99.90;;;;;;3621544;39;20279;-75
2020/12/18 01:19:03;;;;;;;5.25;3.75;;;7.60;99.90;;;;;;3621966;39;20267;-75
2020/12/18 01:21:29;;;;;;;12.00;4.45;;;7.60;99.90;;;;;;3624160;39;20271;-75
2020/12/18 01:23:55;;;;;;;5.80;3.65;;;7.50;99.90;;;;;;3621603;39;20597;-75
2020/12/18 01:26:22;;;;;;;13.23;4.57;;;7.50;99.90;;;;;;3621755;39;20726;-76
2020/12/18 01:28:49;;;;;;;11.95;5.32;;;7.50;99.90;;;;;;3624934;39;20271;-75
2020/12/18 01:31:16;;;;;;;9.90;4.43;;;7.50;99.90;;;;;;3625642;39;20244;-75
2020/12/18 01:33:43;;;;;;;7.65;4.75;;;7.50;99.90;;;;;;3623877;39;20260;-75
2020/12/18 01:36:09;;;;;;;9.27;4.60;;;7.50;99.90;;;;;;3621560;39;20256;-74
2020/12/18 01:38:37;;;;;;;9.50;4.47;;;7.50;99.90;;;;;;3623436;39;20251;-75
2020/12/18 01:41:04;;;;;;;6.53;4.13;;;7.40;99.90;;;;;;3625092;39;20646;-75
2020/12/18 01:43:30;;;;;;;10.68;4.57;;;7.40;99.90;;;;;;3624719;39;20353;-75
2020/12/18 01:46:02;;;;;;;5.05;4.13;;;7.30;99.90;;;;;;3621283;39;20256;-76
2020/12/18 01:48:30;;;;;;;9.40;3.70;;;7.30;99.90;;;;;;3623982;39;20283;-75
2020/12/18 01:50:57;;;;;;;8.90;4.47;;;7.30;99.90;;;;;;3620911;39;20845;-75
2020/12/18 01:53:27;;;;;;;9.93;3.58;;;7.30;99.90;;;;;;3621413;39;20256;-76
2020/12/18 01:55:54;;;;;;;7.82;3.60;;;7.30;99.90;;;;;;3646190;31;20313;-76
2020/12/18 01:58:22;;;;;;;12.57;3.75;;;7.30;99.90;;;;;;3621455;39;20283;-75
2020/12/18 02:00:49;;;;;;;8.55;4.28;;;7.30;99.90;;;;;;3621161;39;20264;-75
2020/12/18 02:03:16;;;;;;;9.10;3.47;;;7.30;99.90;;;;;;3621814;39;20278;-75
2020/12/18 02:05:43;;;;;;;7.53;3.92;;;7.30;99.90;;;;;;3622941;39;20344;-76
2020/12/18 02:08:11;;;;;;;9.73;3.95;;;7.20;99.90;;;;;;3620962;39;20267;-75
2020/12/18 02:10:37;;;;;;;11.68;4.20;;;7.20;99.90;;;;;;3621139;39;20244;-76
2020/12/18 02:13:04;;;;;;;12.70;4.68;;;7.20;99.90;;;;;;3627453;39;20278;-76
2020/12/18 02:15:31;;;;;;;12.85;4.85;;;7.20;99.90;;;;;;3622107;39;20244;-75
2020/12/18 02:17:59;;;;;;;10.60;3.83;;;7.20;99.90;;;;;;3621177;39;20264;-75
2020/12/18 02:20:26;;;;;;;7.70;4.35;;;7.20;99.90;;;;;;3628905;31;20252;-75
2020/12/18 02:22:54;;;;;;;6.90;3.83;;;7.20;99.90;;;;;;3623715;39;20272;-76
2020/12/18 02:25:22;;;;;;;4.13;3.50;;;7.30;99.90;;;;;;3621731;39;22651;-76
2020/12/18 02:27:50;;;;;;;5.15;3.38;;;7.30;99.90;;;;;;3620312;39;20268;-76
2020/12/18 02:30:16;;;;;;;8.98;3.78;;;7.30;99.90;;;;;;3622904;39;20248;-76
2020/12/18 02:32:43;;;;;;;7.10;3.90;;;7.30;99.90;;;;;;3620414;39;20297;-76
2020/12/18 02:35:09;;;;;;;11.48;4.78;;;7.30;99.90;;;;;;3637365;31;20240;-76
2020/12/18 02:37:36;;;;;;;6.20;4.43;;;7.30;99.90;;;;;;3622593;39;20278;-76
2020/12/18 02:40:05;;;;;;;12.48;4.30;;;7.30;99.90;;;;;;3620513;39;20298;-76
2020/12/18 02:42:32;;;;;;;10.98;3.78;;;7.30;99.90;;;;;;3622648;39;20780;-76
2020/12/18 02:44:59;;;;;;;5.72;3.88;;;7.30;99.90;;;;;;3621616;39;20379;-76
2020/12/18 02:47:25;;;;;;;8.50;3.67;;;7.30;99.90;;;;;;3621160;39;20256;-76
2020/12/18 02:49:52;;;;;;;5.88;3.63;;;7.30;99.90;;;;;;3622206;39;20283;-76
2020/12/18 02:52:18;;;;;;;4.40;3.38;;;7.30;99.90;;;;;;3623469;39;20261;-76
2020/12/18 02:54:45;;;;;;;4.63;3.40;;;7.30;99.90;;;;;;3619950;39;20592;-75
2020/12/18 02:57:11;;;;;;;9.75;3.10;;;7.30;99.90;;;;;;3620215;39;20354;-75
2020/12/18 02:59:38;;;;;;;5.72;3.50;;;7.30;99.90;;;;;;3620247;39;20789;-75
2020/12/18 03:02:05;;;;;;;6.70;3.30;;;7.30;99.90;;;;;;3620191;39;20329;-75
2020/12/18 03:04:32;;;;;;;6.63;2.75;;;7.30;99.90;;;;;;3620620;39;20267;-75
2020/12/18 03:06:58;;;;;;;9.05;3.40;;;7.30;99.90;;;;;;3620483;39;20336;-75
2020/12/18 03:09:25;;;;;;;4.95;2.88;;;7.30;99.90;;;;;;3620077;39;20271;-75
2020/12/18 03:11:51;;;;;;;3.38;2.70;;;7.30;99.90;;;;;;3622170;39;20324;-75
2020/12/18 03:14:17;;;;;;;4.30;3.28;;;7.30;99.90;;;;;;3642016;31;20243;-75
2020/12/18 03:16:44;;;;;;;4.78;3.10;;;7.30;99.90;;;;;;3627095;39;20289;-75
2020/12/18 03:19:13;;;;;;;11.38;2.67;;;7.30;99.90;;;;;;3622359;39;20869;-75
2020/12/18 03:21:39;;;;;;;7.13;2.72;;;7.20;99.90;;;;;;3624942;32;20251;-75
2020/12/18 03:24:06;;;;;;;8.90;3.17;;;7.20;99.90;;;;;;3620971;39;20352;-75
2020/12/18 03:26:32;;;;;;;8.98;3.05;;;7.20;99.90;;;;;;3622541;39;20275;-75
2020/12/18 03:28:59;;;;;;;12.35;4.88;;;7.20;99.90;;;;;;3619801;39;20371;-76
2020/12/18 03:31:25;;;;;;;5.30;3.08;;;7.20;99.90;;;;;;3619945;39;20348;-75
2020/12/18 03:33:52;;;;;;;11.35;3.30;;;7.20;99.90;;;;;;3621017;39;20297;-75
2020/12/18 03:36:19;;;;;;;4.28;2.47;;;7.30;99.90;;;;;;3621298;39;20268;-75
2020/12/18 03:38:46;;;;;;;6.25;3.05;;;7.20;99.90;;;;;;3618738;39;20255;-76
2020/12/18 03:41:12;;;;;;;4.47;2.80;;;7.30;99.90;;;;;;3624263;39;20289;-76
2020/12/18 03:43:39;;;;;;;6.43;2.53;;;7.30;99.90;;;;;;3622265;39;20255;-75
2020/12/18 03:46:05;;;;;;;5.60;3.20;;;7.30;99.90;;;;;;3621054;39;20267;-75
2020/12/18 03:48:32;;;;;;;8.35;3.30;;;7.30;99.90;;;;;;3622121;39;20264;-75
2020/12/18 03:50:58;;;;;;;5.70;2.53;;;7.30;99.90;;;;;;3624765;39;20278;-75
2020/12/18 03:53:25;;;;;;;8.50;3.45;;;7.30;99.90;;;;;;3621988;39;20263;-77
2020/12/18 03:55:52;;;;;;;6.45;3.28;;;7.30;99.90;;;;;;3622191;39;20344;-75
2020/12/18 03:58:18;;;;;;;3.40;2.78;;;7.30;99.90;;;;;;3621858;39;20260;-76
2020/12/18 04:00:45;;;;;;;7.57;3.53;;;7.20;99.90;;;;;;3624192;39;20298;-76
2020/12/18 04:03:11;;;;;;;6.60;3.58;;;7.30;99.90;;;;;;3622476;39;20260;-75
2020/12/18 04:05:38;;;;;;;5.93;3.63;;;7.30;99.90;;;;;;3623337;39;20256;-75
2020/12/18 04:08:06;;;;;;;5.07;2.78;;;7.30;99.90;;;;;;3624691;39;20285;-76
2020/12/18 04:10:34;;;;;;;13.63;3.78;;;7.30;99.90;;;;;;3624188;39;20256;-76
2020/12/18 04:13:00;;;;;;;5.93;3.25;;;7.30;99.90;;;;;;3624927;39;20232;-76
2020/12/18 04:15:27;;;;;;;4.88;3.10;;;7.30;99.90;;;;;;3626220;39;20277;-75
2020/12/18 04:17:53;;;;;;;7.13;4.00;;;7.20;99.90;;;;;;3625337;39;20248;-75
2020/12/18 04:20:20;;;;;;;8.98;3.58;;;7.30;99.90;;;;;;3622240;39;20278;-75
2020/12/18 04:22:46;;;;;;;6.85;3.25;;;7.20;99.90;;;;;;3624109;39;20251;-75
2020/12/18 04:25:12;;;;;;;14.10;3.78;;;7.30;99.90;;;;;;3622922;39;20280;-75
2020/12/18 04:27:40;;;;;;;5.20;3.60;;;7.20;99.90;;;;;;3625208;39;20643;-75
2020/12/18 04:30:06;;;;;;;5.03;3.30;;;7.20;99.90;;;;;;3621200;39;20259;-76
2020/12/18 04:32:33;;;;;;;11.32;3.20;;;7.20;99.90;;;;;;3621733;39;20252;-76
2020/12/18 04:35:00;;;;;;;5.38;3.40;;;7.20;99.90;;;;;;3643982;32;20260;-76
2020/12/18 04:37:26;;;;;;;7.85;3.58;;;7.20;99.90;;;;;;3621333;39;20339;-76
2020/12/18 04:39:53;;;;;;;7.53;3.30;;;7.20;99.90;;;;;;3651624;31;20240;-76
2020/12/18 04:42:19;;;;;;;7.20;2.88;;;7.30;99.90;;;;;;3623214;39;20858;-76
2020/12/18 04:44:47;;;;;;;5.78;2.72;;;7.30;99.90;;;;;;3624998;39;20248;-76
2020/12/18 04:47:15;;;;;;;7.25;2.60;;;7.30;99.90;;;;;;3620995;39;20248;-77
2020/12/18 04:49:42;;;;;;;7.35;3.00;;;7.30;99.90;;;;;;3626488;39;20274;-77
2020/12/18 04:52:11;;;;;;;8.77;2.70;;;7.30;99.90;;;;;;3623818;39;20323;-76
2020/12/18 04:54:40;;;;;;;2.78;2.58;;;7.30;99.90;;;;;;3621879;39;20344;-77
2020/12/18 04:57:07;;;;;;;7.15;3.00;;;7.30;99.90;;;;;;3621112;39;20615;-76
2020/12/18 04:59:35;;;;;;;10.00;2.83;;;7.30;99.90;;;;;;3621501;39;20255;-76
2020/12/18 05:02:02;;;;;;;7.18;3.40;;;7.30;99.90;;;;;;3632103;32;20441;-76
2020/12/18 05:04:29;;;;;;;8.93;3.22;;;7.20;99.90;;;;;;3621505;39;20286;-75
2020/12/18 05:06:56;;;;;;;5.65;2.30;;;7.30;99.90;;;;;;3620732;39;20256;-76
2020/12/18 05:09:25;;;;;;;8.40;2.88;;;7.30;99.90;;;;;;3624342;39;20287;-76
2020/12/18 05:11:52;;;;;;;4.88;2.90;;;7.30;99.90;;;;;;3620973;39;20854;-76
2020/12/18 05:14:28;;;;;;;4.22;3.40;;;7.40;99.90;;;;;;3634686;31;20270;-76
2020/12/18 05:16:54;;;;;;;9.73;3.10;;;7.30;99.90;;;;;;3624510;39;20305;-76
2020/12/18 05:19:22;;;;;;;4.65;3.38;;;7.30;99.90;;;;;;3620668;39;20371;-76
2020/12/18 05:21:50;;;;;;;3.30;2.63;;;7.30;99.90;;;;;;3620737;39;20256;-76
2020/12/18 05:24:19;;;;;;;5.13;2.63;;;7.30;99.90;;;;;;3622451;39;20264;-76
2020/12/18 05:26:46;;;;;;;6.25;2.90;;;7.30;99.90;;;;;;3626521;39;20247;-76
2020/12/18 05:29:12;;;;;;;7.93;3.20;;;7.30;99.90;;;;;;3622165;39;20267;-76
2020/12/18 05:31:39;;;;;;;4.43;2.92;;;7.30;99.90;;;;;;3621803;39;20256;-75
2020/12/18 05:34:06;;;;;;;7.90;2.78;;;7.30;99.90;;;;;;3620779;39;20240;-76
2020/12/18 05:36:33;;;;;;;7.13;3.13;;;7.30;99.90;;;;;;3623107;39;20363;-76
2020/12/18 05:39:00;;;;;;;4.97;3.10;;;7.30;99.90;;;;;;3622785;39;20272;-76
2020/12/18 05:41:27;;;;;;;7.72;3.03;;;7.30;99.90;;;;;;3621357;39;20248;-76
2020/12/18 05:43:54;;;;;;;5.00;2.80;;;7.30;99.90;;;;;;3620853;39;20278;-76
2020/12/18 05:46:22;;;;;;;5.55;3.03;;;7.30;99.90;;;;;;3620846;39;20244;-76
2020/12/18 05:48:58;;;;;;;9.93;3.47;;;7.30;99.90;;;;;;3620808;39;20252;-76
2020/12/18 05:51:33;;;;;;;4.72;2.50;;;7.30;99.90;;;;;;3621291;39;20305;-76
2020/12/18 05:54:11;;;;;;;11.55;2.90;;;7.30;99.90;;;;;;3620753;39;20260;-76
2020/12/18 05:56:39;;;;;;;3.08;2.88;;;7.40;99.90;;;;;;3620584;39;20404;-76
2020/12/18 05:59:10;;;;;;;9.23;2.85;;;7.40;99.90;;;;;;3634507;32;20295;-76
2020/12/18 06:01:41;;;;;;;6.57;2.83;;;7.40;99.90;;;;;;3625113;39;20724;-76
2020/12/18 06:04:13;;;;;;;7.85;2.97;;;7.30;99.90;;;;;;3621090;39;20248;-76
2020/12/18 06:06:43;;;;;;;4.30;2.80;;;7.30;99.90;;;;;;3620195;39;20296;-76
2020/12/18 06:09:11;;;;;;;3.63;3.13;;;7.40;99.90;;;;;;3623324;39;20343;-76
2020/12/18 06:11:38;;;;;;;6.47;3.17;;;7.40;99.90;;;;;;3630315;32;20272;-76
2020/12/18 06:14:06;;;;;;;4.65;3.10;;;7.40;99.90;;;;;;3620840;39;20240;-76
2020/12/18 06:16:37;;;;;;;3.95;2.15;;;7.40;99.90;;;;;;3620957;39;20244;-76
2020/12/18 06:19:05;;;;;;;5.28;2.13;;;7.30;99.90;;;;;;3623077;39;20239;-76
2020/12/18 06:21:32;;;;;;;5.80;2.60;;;7.40;99.90;;;;;;3620550;39;20256;-76
2020/12/18 06:24:00;;;;;;;8.25;2.60;;;7.30;99.90;;;;;;3650684;32;20293;-76
2020/12/18 06:26:27;;;;;;;17.15;3.97;;;7.40;99.90;;;;;;3622346;39;20355;-76
2020/12/18 06:29:02;;;;;;;9.30;3.67;;;7.30;99.90;;;;;;3625997;39;20760;-76
2020/12/18 06:31:31;;;;;;;7.82;2.60;;;7.30;99.90;;;;;;3635933;32;20227;-76
2020/12/18 06:33:59;;;;;;;6.07;2.38;;;7.40;99.90;;;;;;3620649;39;20260;-76
2020/12/18 06:36:58;;;;;;;4.07;2.53;;;7.30;99.90;;;;;;3620490;39;20278;-76
2020/12/18 06:39:28;;;;;;;3.85;2.30;;;7.40;99.90;;;;;;3620050;39;20256;-76
2020/12/18 06:42:11;;;;;;;9.48;2.45;;;7.30;99.90;;;;;;3622474;39;20268;-76
2020/12/18 06:44:39;;;;;;;4.65;2.17;;;7.30;99.90;;;;;;3620084;39;20264;-76
2020/12/18 06:47:30;;;;;;;7.00;2.45;;;7.30;99.90;;;;;;3631146;32;20275;-77
2020/12/18 06:50:01;;;;;;;6.88;2.30;;;7.30;99.90;;;;;;3621440;39;20244;-76
2020/12/18 06:52:44;;;;;;;11.18;2.42;;;7.30;99.90;;;;;;3623701;39;20283;-77
2020/12/18 06:55:13;;;;;;;3.15;2.67;;;7.30;99.90;;;;;;3620619;39;20270;-77
2020/12/18 06:57:40;;;;;;;2.70;2.50;;;7.20;99.90;;;;;;3625523;32;20260;-76
2020/12/18 07:00:29;;;;;;;3.78;2.63;;;7.20;99.90;;;;;;3620321;39;20892;-76
2020/12/18 07:02:56;;;;;;;2.97;2.33;;;7.20;99.90;;;;;;3620512;39;20259;-76
2020/12/18 07:05:35;;;;;;;5.78;2.38;;;7.20;99.90;;;;;;3623731;39;20293;-76
2020/12/18 07:08:03;;;;;;;4.30;2.40;;;7.20;99.90;;;;;;3620244;39;20282;-76
2020/12/18 07:10:36;;;;;;;6.82;2.80;;;7.30;99.90;;;;;;3620449;39;20335;-76
2020/12/18 07:13:04;;;;;;;3.88;2.25;;;7.30;99.90;;;;;;3623188;39;20251;-76
2020/12/18 07:15:51;;;;;;;8.52;2.65;;;7.30;99.90;;;;;;3623946;39;20235;-76
2020/12/18 07:18:22;;;;;;;9.88;2.83;;;7.30;99.90;;;;;;3619777;39;20348;-78
2020/12/18 07:20:52;;;;;;;4.43;2.40;;;7.30;99.90;;;;;;3622536;39;20283;-77
2020/12/18 07:23:19;;;;;;;5.22;2.33;;;7.30;99.90;;;;;;3622902;39;20247;-77
2020/12/18 07:25:47;;;;;;;4.85;2.80;;;7.30;99.90;;;;;;3621230;39;20248;-77
2020/12/18 07:28:14;;;;;;;6.68;2.78;;;7.40;99.90;;;;;;3622705;39;20184;-77
2020/12/18 07:30:43;;;;;;;3.05;2.38;;;7.30;99.90;;;;;;3623470;39;20240;-78
2020/12/18 07:33:14;;;;;;;8.85;2.80;;;7.30;99.90;;;;;;3623716;39;20347;-78
2020/12/18 07:35:44;;;;;;;4.63;2.50;;;7.30;99.90;;;;;;3623415;39;20304;-79
2020/12/18 07:38:18;;;;;;;5.78;2.58;;;7.30;99.90;;;;;;3624518;39;20247;-77
2020/12/18 07:40:47;;;;;;;6.68;2.60;;;7.30;99.90;;;;;;3623843;39;20255;-78
2020/12/18 07:43:15;;;;;;;9.32;2.53;;;7.40;99.90;;;;;;3648703;32;20264;-78
2020/12/18 07:45:44;;;;;;;9.07;2.55;;;7.40;99.90;;;;;;3628969;39;20302;-77
2020/12/18 07:48:13;;;;;;;7.47;2.95;;;7.40;99.90;;;;;;3624063;39;20255;-77
2020/12/18 07:50:39;;;;;;;5.30;2.63;;;7.40;99.90;;;;;;3623415;39;20279;-77
2020/12/18 07:53:10;;;;;;;6.97;3.17;;;7.40;99.90;;;;;;3623898;39;20844;-76
2020/12/18 07:55:37;;;;;;;8.70;2.60;;;7.40;99.90;;;;;;3622736;39;20255;-77
2020/12/18 07:58:04;;;;;;;16.17;3.05;;;7.50;99.90;;;;;;3624620;39;20244;-77
2020/12/18 08:00:31;;;;;;;7.00;2.70;;;7.50;99.90;;;;;;3623971;39;20279;-77
2020/12/18 08:02:58;;;;;;;4.15;2.55;;;7.60;99.90;;;;;;3633133;32;20260;-77
2020/12/18 08:05:24;;;;;;;4.35;2.67;;;7.60;99.90;;;;;;3623206;39;20287;-77
2020/12/18 08:07:57;;;;;;;6.60;2.33;;;7.60;99.90;;;;;;3622440;39;20255;-77
2020/12/18 08:10:24;;;;;;;5.07;2.40;;;7.60;99.90;;;;;;3623751;39;20286;-77
2020/12/18 08:12:51;;;;;;;6.68;2.30;;;7.60;99.90;;;;;;3623737;39;20320;-77
2020/12/18 08:15:18;;;;;;;6.78;2.10;;;7.70;99.90;;;;;;3622223;39;20232;-77
2020/12/18 08:17:45;;;;;;;9.20;2.75;;;7.70;99.90;;;;;;3622252;39;20259;-77
2020/12/18 08:20:14;;;;;;;7.65;2.28;;;7.70;99.90;;;;;;3622677;39;20290;-77
2020/12/18 08:22:44;;;;;;;3.67;2.20;;;7.70;99.90;;;;;;3664142;31;20252;-77
2020/12/18 08:25:13;;;;;;;4.70;2.30;;;7.80;99.90;;;;;;3622354;39;20306;-77
2020/12/18 08:27:46;;;;;;;4.97;2.22;;;7.80;99.90;;;;;;3622547;39;20286;-77
2020/12/18 08:30:17;;;;;;;10.32;2.83;;;7.80;99.90;;;;;;3622181;39;20252;-77
2020/12/18 08:32:53;;;;;;;4.38;2.30;;;7.90;99.90;;;;;;3621958;39;20256;-77
2020/12/18 08:35:21;;;;;;;5.47;2.85;;;7.90;99.90;;;;;;3623736;39;20259;-77
2020/12/18 08:37:48;;;;;;;6.95;2.50;;;7.90;99.90;;;;;;3624891;39;20340;-77
2020/12/18 08:40:20;;;;;;;3.28;2.22;;;7.90;99.90;;;;;;3621932;39;20282;-77
2020/12/18 08:42:59;;;;;;;6.60;2.50;;;7.90;99.90;;;;;;3621385;39;20264;-77
2020/12/18 08:45:25;;;;;;;8.95;3.22;;;8.00;99.90;;;;;;3629944;39;20259;-77
2020/12/18 08:47:53;;;;;;;4.45;2.92;;;8.10;99.90;;;;;;3620169;39;20656;-77
2020/12/18 08:50:21;;;;;;;9.23;2.15;;;8.20;99.90;;;;;;3622628;39;20294;-77
2020/12/18 08:52:48;;;;;;;6.95;2.50;;;8.30;99.90;;;;;;3621865;39;20240;-77
2020/12/18 08:55:15;;;;;;;6.95;2.63;;;8.30;99.90;;;;;;3622053;39;20276;-77
2020/12/18 08:57:42;;;;;;;3.67;2.40;;;8.30;99.90;;;;;;3621623;39;20259;-78
2020/12/18 09:00:14;;;;;;;8.82;3.20;;;8.40;99.90;;;;;;3621335;39;20243;-78
2020/12/18 09:02:43;;;;;;;7.93;3.03;;;8.40;99.90;;;;;;3625044;39;20800;-77
2020/12/18 09:05:25;;;;;;;6.28;2.83;;;8.40;99.90;;;;;;3624656;39;20248;-77
2020/12/18 09:07:54;;;;;;;5.88;2.50;;;8.50;99.90;;;;;;3623648;39;20320;-77
2020/12/18 09:10:38;;;;;;;4.07;1.95;;;8.60;99.90;;;;;;3624652;39;20829;-77
2020/12/18 09:13:18;;;;;;;3.97;2.60;;;8.60;99.90;;;;;;3624954;39;20386;-77
2020/12/18 09:15:46;;;;;;;7.95;2.58;;;8.60;99.90;;;;;;3625959;39;20321;-77
2020/12/18 09:18:14;;;;;;;5.40;3.17;;;8.60;99.90;;;;;;3624894;39;20272;-77
2020/12/18 09:20:43;;;;;;;3.78;2.75;;;8.70;99.90;;;;;;3620876;39;20252;-77
2020/12/18 09:23:11;;;;;;;4.63;2.72;;;8.90;99.90;;;;;;3639135;32;20256;-77
2020/12/18 09:25:41;;;;;;;7.47;2.95;;;9.10;99.90;;;;;;3621785;39;20340;-77
2020/12/18 09:28:13;;;;;;;9.40;2.40;;;9.50;99.90;;;;;;3623960;39;20266;-77
2020/12/18 09:30:40;;;;;;;9.82;2.60;;;9.90;99.90;;;;;;3630778;32;20263;-77
2020/12/18 09:33:12;;;;;;;1.90;1.80;;;10.20;99.90;;;;;;3623365;39;20263;-77
2020/12/18 09:35:39;;;;;;;3.88;2.38;;;10.30;99.90;;;;;;3621694;39;20267;-77
2020/12/18 09:38:07;;;;;;;9.32;2.50;;;10.50;99.90;;;;;;3621690;39;20399;-77
2020/12/18 09:40:34;;;;;;;4.90;2.95;;;10.50;99.90;;;;;;3626457;39;20244;-77
2020/12/18 09:43:00;;;;;;;3.05;2.75;;;10.50;99.90;;;;;;3621215;39;20784;-77
2020/12/18 09:45:27;;;;;;;8.32;2.40;;;10.50;99.90;;;;;;3622405;39;20291;-77
2020/12/18 09:47:53;;;;;;;5.47;2.47;;;10.50;99.90;;;;;;3631583;32;20256;-77
2020/12/18 09:50:20;;;;;;;5.32;2.13;;;10.50;99.90;;;;;;3623897;39;20307;-77
2020/12/18 09:52:47;;;;;;;5.20;2.70;;;10.70;99.90;;;;;;3630792;32;20323;-77
2020/12/18 09:55:15;;;;;;;2.35;2.15;;;10.80;99.90;;;;;;3624685;39;20256;-77
2020/12/18 09:57:42;;;;;;;2.85;2.20;;;11.20;99.90;;;;;;3627916;39;20363;-77
2020/12/18 10:00:09;;;;;;;6.53;2.55;;;11.50;99.90;;;;;;3622560;39;20269;-77
2020/12/18 10:02:35;;;;;;;5.35;2.30;;;11.70;99.90;;;;;;3620592;39;20368;-78
2020/12/18 10:05:03;;;;;;;6.35;2.13;;;11.90;99.90;;;;;;3624895;39;20256;-77
2020/12/18 10:07:29;;;;;;;5.40;2.10;;;12.00;99.90;;;;;;3621222;39;20258;-77
2020/12/18 10:09:56;;;;;;;3.03;1.90;;;12.00;99.90;;;;;;3621301;39;20273;-77
2020/12/18 10:12:24;;;;;;;4.63;1.92;;;12.00;99.90;;;;;;3623814;39;20251;-77
2020/12/18 10:14:50;;;;;;;4.15;2.47;;;12.20;99.90;;;;;;3624530;39;20277;-77
2020/12/18 10:17:17;;;;;;;4.55;2.20;;;12.20;99.90;;;;;;3622104;39;20243;-77
2020/12/18 10:19:43;;;;;;;3.72;2.42;;;12.30;99.90;;;;;;3627962;39;20256;-77
2020/12/18 10:22:10;;;;;;;5.55;2.10;;;12.40;99.90;;;;;;3621923;39;20252;-78
2020/12/18 10:24:37;;;;;;;7.03;2.47;;;12.40;99.90;;;;;;3625029;39;20297;-78
2020/12/18 10:27:03;;;;;;;5.38;2.80;;;12.30;99.90;;;;;;3627921;39;20335;-77
2020/12/18 10:29:31;;;;;;;7.80;2.65;;;12.20;99.90;;;;;;3624384;39;20259;-78
2020/12/18 10:31:58;;;;;;;2.85;2.00;;;12.00;99.90;;;;;;3622373;39;20360;-77
2020/12/18 10:34:25;;;;;;;8.75;2.75;;;11.90;99.90;;;;;;3624069;39;20267;-77
2020/12/18 10:36:53;;;;;;;3.42;2.40;;;11.80;99.90;;;;;;3620876;39;20272;-77
2020/12/18 10:39:21;;;;;;;6.07;3.80;;;11.70;99.90;;;;;;3662788;32;20334;-77
2020/12/18 10:41:48;;;;;;;5.75;3.22;;;11.60;99.90;;;;;;3620982;39;20275;-77
2020/12/18 10:44:14;;;;;;;2.70;2.28;;;11.50;99.90;;;;;;3624300;39;20340;-78
2020/12/18 10:46:43;;;;;;;3.65;2.78;;;11.40;99.90;;;;;;3620980;39;20301;-77
2020/12/18 10:49:10;;;;;;;5.15;2.30;;;11.30;99.90;;;;;;3621498;39;20252;-77
2020/12/18 10:51:40;;;;;;;4.07;2.13;;;11.20;99.90;;;;;;3620825;39;20255;-77
2020/12/18 10:54:07;;;;;;;8.63;3.35;;;11.10;99.90;;;;;;3621461;39;20287;-77
2020/12/18 10:56:39;;;;;;;3.25;2.40;;;10.90;99.90;;;;;;3624549;39;20248;-77
2020/12/18 10:59:05;;;;;;;7.03;2.72;;;10.90;99.90;;;;;;3620383;39;20276;-78
2020/12/18 11:05:38;;;;;;;5.20;2.45;;;10.90;99.90;;;;;;3631527;39;20412;-77
2020/12/18 11:08:05;;;;;;;4.72;2.63;;;10.80;99.90;;;;;;3629094;39;20317;-77
2020/12/18 11:10:32;;;;;;;6.55;2.85;;;10.70;99.90;;;;;;3628945;39;20248;-77
2020/12/18 11:12:59;;;;;;;4.88;2.75;;;10.70;99.90;;;;;;3638155;31;20264;-77
2020/12/18 11:15:31;;;;;;;4.82;2.78;;;10.70;99.90;;;;;;3632946;39;20251;-77
2020/12/18 11:17:57;;;;;;;4.93;2.72;;;10.70;99.90;;;;;;3629925;39;20274;-77
2020/12/18 11:20:24;;;;;;;2.67;2.45;;;10.70;99.90;;;;;;3629281;39;20295;-77
2020/12/18 11:22:50;;;;;;;3.95;2.22;;;10.70;99.90;;;;;;3629449;39;20270;-77
2020/12/18 11:25:17;;;;;;;4.20;2.55;;;10.70;99.90;;;;;;3629126;39;20252;-77
2020/12/18 11:27:44;;;;;;;11.50;2.85;;;10.70;99.90;;;;;;3632643;39;20279;-77
2020/12/18 11:30:10;;;;;;;4.53;2.65;;;10.70;99.90;;;;;;3630497;39;20266;-77
2020/12/18 11:32:37;;;;;;;2.30;2.20;;;10.70;99.90;;;;;;3631446;39;20398;-77
2020/12/18 11:35:04;;;;;;;4.30;1.98;;;10.60;99.90;;;;;;3629215;39;20268;-77
2020/12/18 11:37:30;;;;;;;4.88;2.45;;;10.60;99.90;;;;;;3632676;39;20313;-77
2020/12/18 11:39:57;;;;;;;3.70;2.50;;;10.70;99.90;;;;;;3630059;39;20244;-77
2020/12/18 11:42:24;;;;;;;2.67;2.47;;;10.70;99.90;;;;;;3629720;39;20291;-77
2020/12/18 11:44:51;;;;;;;3.55;2.20;;;10.70;99.90;;;;;;3629484;39;20317;-77
2020/12/18 11:47:17;;;;;;;4.82;2.00;;;10.70;99.90;;;;;;3628822;39;20273;-77
2020/12/18 11:49:43;;;;;;;3.75;2.08;;;10.80;99.90;;;;;;3631486;39;20267;-77
2020/12/18 11:52:10;;;;;;;5.43;2.38;;;10.70;99.90;;;;;;3644578;31;20270;-77
2020/12/18 11:54:37;;;;;;;5.00;2.28;;;10.80;99.90;;;;;;3632117;39;20258;-78
2020/12/18 11:57:04;;;;;;;3.03;2.60;;;10.80;99.90;;;;;;3636151;39;20271;-80
2020/12/18 11:59:31;;;;;;;4.10;2.35;;;10.80;99.90;;;;;;3631724;39;20248;-78
2020/12/18 12:01:57;;;;;;;5.72;2.00;;;10.80;99.90;;;;;;3634096;39;20352;-79
2020/12/18 12:04:24;;;;;;;8.20;2.03;;;10.80;99.90;;;;;;3631740;39;20276;-77
2020/12/18 12:06:50;;;;;;;2.53;2.05;;;10.80;99.90;;;;;;3631339;39;20267;-75
2020/12/18 12:09:17;;;;;;;8.25;2.35;;;10.80;99.90;;;;;;3630854;39;20266;-74
2020/12/18 12:11:43;;;;;;;5.20;1.70;;;10.80;99.90;;;;;;3629505;39;20264;-76
2020/12/18 12:14:10;;;;;;;8.07;1.92;;;10.80;99.90;;;;;;3628247;39;20284;-77
2020/12/18 12:16:38;;;;;;;3.13;1.77;;;10.90;99.90;;;;;;3621331;39;20259;-77
2020/12/18 12:19:05;;;;;;;5.55;2.30;;;10.90;99.90;;;;;;3621585;39;20260;-75
2020/12/18 12:21:33;;;;;;;9.93;2.33;;;10.80;99.90;;;;;;3621777;39;20260;-77
2020/12/18 12:23:59;;;;;;;9.07;2.20;;;10.80;99.90;;;;;;3622562;39;20260;-79
2020/12/18 12:26:26;;;;;;;10.50;6.65;;;10.80;99.90;;;;;;3628045;39;20371;-80
2020/12/18 12:28:53;;;;;;;3.80;2.40;;;10.80;99.90;;;;;;3629345;39;20283;-80
2020/12/18 12:31:20;;;;;;;6.97;2.13;;;10.90;99.90;;;;;;3632290;39;20272;-79
2020/12/18 12:36:31;;;;;;;2.38;2.00;;;10.90;99.90;;;;;;3634059;32;20343;-79
2020/12/18 12:38:59;;;;;;;4.20;1.77;;;11.00;99.90;;;;;;3629048;39;20392;-79
2020/12/18 12:41:26;;;;;;;2.97;1.80;;;11.00;99.90;;;;;;3624427;39;20260;-78
2020/12/18 12:43:52;;;;;;;4.32;2.22;;;10.90;99.90;;;;;;3621651;39;20267;-76
2020/12/18 12:46:20;;;;;;;3.40;1.85;;;11.00;99.90;;;;;;3623658;39;20271;-76
2020/12/18 12:48:48;;;;;;;3.45;1.88;;;11.00;99.90;;;;;;3630954;31;20259;-76
2020/12/18 12:51:35;;;;;;;4.95;1.90;;;11.10;99.90;;;;;;3626388;39;20302;-76
2020/12/18 12:54:02;;;;;;;3.70;1.85;;;11.20;99.90;;;;;;3626638;39;20283;-76
2020/12/18 12:56:28;;;;;;;1.88;1.70;;;11.20;99.90;;;;;;3625157;39;20256;-75
2020/12/18 12:58:55;;;;;;;5.03;1.73;;;11.20;99.90;;;;;;3626545;39;20281;-76
2020/12/18 13:01:42;;;;;;;4.88;1.80;;;11.20;99.90;;;;;;3626623;39;20347;-76
2020/12/18 13:04:11;;;;;;;2.10;1.90;;;11.20;99.90;;;;;;3628179;39;20822;-76